Observation data for O'Donnell on 08/13/2019      Previous  Date       Current Mesonet Observations  Soil Data  Daily Summary Page  Observations in Plain Language
KOES 130500Z 06005KT 27/12 A2991 RMK A01 T02660122  RH  042%=      5-min Rain = 0
KOES 130505Z 07004KT 27/12 A2991 RMK A01 T02700122  RH  041%=      5-min Rain = 0
KOES 130510Z 09004KT 27/12 A2991 RMK A01 T02710123  RH  041%=      5-min Rain = 0
KOES 130515Z 12003KT 27/13 A2991 RMK A01 T02740126  RH  042%=      5-min Rain = 0
KOES 130520Z 10003KT 27/13 A2991 RMK A01 T02690125  RH  042%=      5-min Rain = 0
KOES 130525Z 12004KT 27/12 A2991 RMK A01 T02680123  RH  042%=      5-min Rain = 0
KOES 130530Z 15003KT 28/12 A2991 RMK A01 T02760123  RH  040%=      5-min Rain = 0
KOES 130535Z 19003KT 27/12 A2991 RMK A01 T02720122  RH  041%=      5-min Rain = 0
KOES 130540Z 20003KT 27/12 A2991 RMK A01 T02680122  RH  042%=      5-min Rain = 0
KOES 130545Z 22004KT 26/12 A2991 RMK A01 T02600120  RH  043%=      5-min Rain = 0
KOES 130550Z 21004KT 26/12 A2991 RMK A01 T02610120  RH  043%=      5-min Rain = 0
KOES 130555Z 18004KT 26/12 A2991 RMK A01 T02590122  RH  044%=      5-min Rain = 0
KOES 130600Z 18003KT 26/12 A2991 RMK A01 T02590123  RH  044%=      5-min Rain = 0
KOES 130605Z 19002KT 26/12 A2991 RMK A01 T02610122  RH  044%=      5-min Rain = 0
KOES 130610Z 21003KT 26/12 A2991 RMK A01 T02590123  RH  044%=      5-min Rain = 0
KOES 130615Z 17003KT 25/12 A299 RMK A01 T02540123  RH  046%=      5-min Rain = 0
KOES 130620Z 17003KT 25/13 A299 RMK A01 T02540125  RH  046%=      5-min Rain = 0
KOES 130625Z 19003KT 26/13 A299 RMK A01 T02560126  RH  046%=      5-min Rain = 0
KOES 130630Z 23005KT 25/12 A2991 RMK A01 T02490123  RH  047%=      5-min Rain = 0
KOES 130635Z 18007KT 25/12 A2991 RMK A01 T02490121  RH  047%=      5-min Rain = 0
KOES 130640Z 22008KT 27/12 A2991 RMK A01 T02680119  RH  041%=      5-min Rain = 0
KOES 130645Z 25007KT 27/12 A2991 RMK A01 T02650123  RH  043%=      5-min Rain = 0
KOES 130650Z 26005KT 26/12 A2991 RMK A01 T02610123  RH  044%=      5-min Rain = 0
KOES 130655Z 25005KT 25/12 A2991 RMK A01 T02540123  RH  046%=      5-min Rain = 0
KOES 130700Z 26004KT 25/13 A2991 RMK A01 T02490126  RH  048%=      5-min Rain = 0
KOES 130705Z 24003KT 25/13 A2991 RMK A01 T02450128  RH  050%=      5-min Rain = 0
KOES 130710Z 20003KT 24/13 A2991 RMK A01 T02430128  RH  051%=      5-min Rain = 0
KOES 130715Z 20003KT 24/13 A2991 RMK A01 T02440130  RH  051%=      5-min Rain = 0
KOES 130720Z 23003KT 25/13 A2991 RMK A01 T02470132  RH  051%=      5-min Rain = 0
KOES 130725Z 24003KT 25/13 A2991 RMK A01 T02500134  RH  051%=      5-min Rain = 0
KOES 130730Z 24003KT 25/14 A2992 RMK A01 T02520136  RH  051%=      5-min Rain = 0
KOES 130735Z 23004KT 25/14 A2992 RMK A01 T02530135  RH  050%=      5-min Rain = 0
KOES 130740Z 19005KT 25/14 A2992 RMK A01 T02520137  RH  051%=      5-min Rain = 0
KOES 130745Z 19006KT 25/14 A2992 RMK A01 T02520136  RH  051%=      5-min Rain = 0
KOES 130750Z 21006KT 25/14 A2993 RMK A01 T02510138  RH  051%=      5-min Rain = 0
KOES 130755Z 21008KT 25/14 A2993 RMK A01 T02490138  RH  052%=      5-min Rain = 0
KOES 130800Z 23006KT 25/14 A2994 RMK A01 T02480138  RH  053%=      5-min Rain = 0
KOES 130805Z 23009KT 25/14 A2994 RMK A01 T02490140  RH  053%=      5-min Rain = 0
KOES 130810Z 23010KT 25/15 A2994 RMK A01 T02510145  RH  054%=      5-min Rain = 0
KOES 130815Z 22009KT 25/15 A2994 RMK A01 T02540147  RH  054%=      5-min Rain = 0
KOES 130820Z 26010KT 25/15 A2994 RMK A01 T02540149  RH  055%=      5-min Rain = 0
KOES 130825Z 26008KT 25/15 A2994 RMK A01 T02540152  RH  056%=      5-min Rain = 0
KOES 130830Z 27006KT 25/15 A2994 RMK A01 T02520154  RH  057%=      5-min Rain = 0
KOES 130835Z 26006KT 25/15 A2994 RMK A01 T02480154  RH  058%=      5-min Rain = 0
KOES 130840Z 26006KT 25/16 A2995 RMK A01 T02450156  RH  060%=      5-min Rain = 0
KOES 130845Z 26007KT 25/16 A2994 RMK A01 T02450155  RH  060%=      5-min Rain = 0
KOES 130850Z 27007KT 24/16 A2995 RMK A01 T02440156  RH  061%=      5-min Rain = 0
KOES 130855Z 27006KT 24/16 A2995 RMK A01 T02420156  RH  061%=      5-min Rain = 0
KOES 130900Z 27005KT 24/16 A2995 RMK A01 T02420156  RH  061%=      5-min Rain = 0
KOES 130905Z 26004KT 24/16 A2995 RMK A01 T02400156  RH  062%=      5-min Rain = 0
KOES 130910Z 26004KT 24/16 A2995 RMK A01 T02360156  RH  064%=      5-min Rain = 0
KOES 130915Z 26005KT 23/16 A2995 RMK A01 T02330156  RH  065%=      5-min Rain = 0
KOES 130920Z 26005KT 23/16 A2995 RMK A01 T02310156  RH  066%=      5-min Rain = 0
KOES 130925Z 27005KT 23/16 A2995 RMK A01 T02310156  RH  066%=      5-min Rain = 0
KOES 130930Z 26004KT 23/16 A2995 RMK A01 T02310156  RH  066%=      5-min Rain = 0
KOES 130935Z 26004KT 23/16 A2995 RMK A01 T02290156  RH  066%=      5-min Rain = 0
KOES 130940Z 26003KT 23/16 A2995 RMK A01 T02270157  RH  068%=      5-min Rain = 0
KOES 130945Z 23003KT 23/16 A2994 RMK A01 T02250155  RH  067%=      5-min Rain = 0
KOES 130950Z 24003KT 23/15 A2995 RMK A01 T02250152  RH  067%=      5-min Rain = 0
KOES 130955Z 24003KT 22/15 A2995 RMK A01 T02220151  RH  067%=      5-min Rain = 0
KOES 131000Z 25003KT 22/15 A2995 RMK A01 T02210151  RH  067%=      5-min Rain = 0
KOES 131005Z 27004KT 22/15 A2995 RMK A01 T02200150  RH  068%=      5-min Rain = 0
KOES 131010Z 29005KT 22/15 A2995 RMK A01 T02190154  RH  070%=      5-min Rain = 0
KOES 131015Z 29005KT 22/16 A2995 RMK A01 T02200156  RH  070%=      5-min Rain = 0
KOES 131020Z 26002KT 22/16 A2995 RMK A01 T02200155  RH  070%=      5-min Rain = 0
KOES 131025Z 28002KT 22/15 A2995 RMK A01 T02190154  RH  070%=      5-min Rain = 0
KOES 131030Z 23002KT 22/16 A2995 RMK A01 T02180156  RH  071%=      5-min Rain = 0
KOES 131035Z 30003KT 22/16 A2996 RMK A01 T02170156  RH  072%=      5-min Rain = 0
KOES 131040Z 30003KT 22/16 A2996 RMK A01 T02150155  RH  072%=      5-min Rain = 0
KOES 131045Z 31003KT 21/15 A2996 RMK A01 T02140153  RH  072%=      5-min Rain = 0
KOES 131050Z 33002KT 21/16 A2997 RMK A01 T02130155  RH  073%=      5-min Rain = 0
KOES 131055Z 34002KT 22/16 A2997 RMK A01 T02150155  RH  072%=      5-min Rain = 0
KOES 131100Z 36002KT 22/15 A2997 RMK A01 T02150153  RH  071%=      5-min Rain = 0
KOES 131105Z 00003KT 22/15 A2997 RMK A01 T02150154  RH  071%=      5-min Rain = 0
KOES 131110Z 00005KT 21/15 A2997 RMK A01 T02120153  RH  072%=      5-min Rain = 0
KOES 131115Z 00005KT 21/16 A2997 RMK A01 T02110155  RH  074%=      5-min Rain = 0
KOES 131120Z 35005KT 21/16 A2998 RMK A01 T02120158  RH  075%=      5-min Rain = 0
KOES 131125Z 34006KT 21/16 A2998 RMK A01 T02140160  RH  075%=      5-min Rain = 0
KOES 131130Z 33006KT 22/16 A2998 RMK A01 T02150160  RH  074%=      5-min Rain = 0
KOES 131135Z 33006KT 22/16 A2998 RMK A01 T02150160  RH  075%=      5-min Rain = 0
KOES 131140Z 34006KT 22/16 A2998 RMK A01 T02150161  RH  075%=      5-min Rain = 0
KOES 131145Z 00006KT 21/16 A2998 RMK A01 T02140162  RH  076%=      5-min Rain = 0
KOES 131150Z 02007KT 21/16 A2998 RMK A01 T02130163  RH  077%=      5-min Rain = 0
KOES 131155Z 01007KT 21/16 A2998 RMK A01 T02120164  RH  078%=      5-min Rain = 0
KOES 131200Z 01007KT 21/17 A2998 RMK A01 T02130165  RH  078%=      5-min Rain = 0
KOES 131205Z 00006KT 21/17 A2998 RMK A01 T02130167  RH  079%=      5-min Rain = 0
KOES 131210Z 36006KT 21/17 A2999 RMK A01 T02130168  RH  079%=      5-min Rain = 0
KOES 131215Z 00005KT 21/17 A2999 RMK A01 T02130168  RH  079%=      5-min Rain = 0
KOES 131220Z 36006KT 21/17 A2999 RMK A01 T02140169  RH  079%=      5-min Rain = 0
KOES 131225Z 34005KT 21/17 A2999 RMK A01 T02140169  RH  080%=      5-min Rain = 0
KOES 131230Z 00008KT 22/17 A30 RMK A01 T02150170  RH  080%=      5-min Rain = 0
KOES 131235Z 01008KT 22/17 A30 RMK A01 T02160171  RH  079%=      5-min Rain = 0
KOES 131240Z 01008KT 22/17 A30 RMK A01 T02170172  RH  079%=      5-min Rain = 0
KOES 131245Z 02008KT 22/17 A30 RMK A01 T02180172  RH  079%=      5-min Rain = 0
KOES 131250Z 02005KT 22/17 A30 RMK A01 T02200173  RH  079%=      5-min Rain = 0
KOES 131255Z 02008KT 22/17 A30 RMK A01 T02210174  RH  079%=      5-min Rain = 0
KOES 131300Z 02008KT 22/18 A3001 RMK A01 T02230175  RH  078%=      5-min Rain = 0
KOES 131305Z 02008KT 22/18 A3001 RMK A01 T02240176  RH  078%=      5-min Rain = 0
KOES 131310Z 03008KT 23/18 A30 RMK A01 T02260177  RH  078%=      5-min Rain = 0
KOES 131315Z 03009KT 23/18 A30 RMK A01 T02260178  RH  078%=      5-min Rain = 0
KOES 131320Z 03010KT 23/18 A3001 RMK A01 T02280178  RH  078%=      5-min Rain = 0
KOES 131325Z 03010KT 23/18 A3001 RMK A01 T02290179  RH  078%=      5-min Rain = 0
KOES 131330Z 03010KT 23/18 A3001 RMK A01 T02290180  RH  078%=      5-min Rain = 0
KOES 131335Z 04010KT 23/18 A3001 RMK A01 T02300180  RH  077%=      5-min Rain = 0
KOES 131340Z 04010KT 23/18 A3001 RMK A01 T02320181  RH  077%=      5-min Rain = 0
KOES 131345Z 03011KT 23/18 A3001 RMK A01 T02330181  RH  077%=      5-min Rain = 0
KOES 131350Z 04010KT 23/18 A3002 RMK A01 T02340182  RH  077%=      5-min Rain = 0
KOES 131355Z 04011KT 24/18 A3002 RMK A01 T02350182  RH  076%=      5-min Rain = 0
KOES 131400Z 04011KT 24/18 A3002 RMK A01 T02350182  RH  076%=      5-min Rain = 0
KOES 131405Z 04012KT 24/18 A3002 RMK A01 T02370183  RH  076%=      5-min Rain = 0
KOES 131410Z 03012KT 24/18 A3002 RMK A01 T02370183  RH  075%=      5-min Rain = 0
KOES 131415Z 03012KT 24/18 A3002 RMK A01 T02390183  RH  075%=      5-min Rain = 0
KOES 131420Z 04011KT 24/18 A3002 RMK A01 T02420184  RH  074%=      5-min Rain = 0
KOES 131425Z 04011KT 24/18 A3003 RMK A01 T02430184  RH  073%=      5-min Rain = 0
KOES 131430Z 03012KT 24/18 A3003 RMK A01 T02440184  RH  073%=      5-min Rain = 0
KOES 131435Z 04012KT 25/18 A3003 RMK A01 T02460184  RH  072%=      5-min Rain = 0
KOES 131440Z 03011KT 25/19 A3003 RMK A01 T02480185  RH  072%=      5-min Rain = 0
KOES 131445Z 03011KT 25/19 A3003 RMK A01 T02500185  RH  071%=      5-min Rain = 0
KOES 131450Z 04011KT 25/19 A3003 RMK A01 T02530185  RH  070%=      5-min Rain = 0
KOES 131455Z 04012KT 25/18 A3004 RMK A01 T02520184  RH  070%=      5-min Rain = 0
KOES 131500Z 04011KT 25/19 A3004 RMK A01 T02530185  RH  069%=      5-min Rain = 0
KOES 131505Z 04011KT 26/19 A3004 RMK A01 T02560185  RH  068%=      5-min Rain = 0
KOES 131510Z 03011KT 26/19 A3004 RMK A01 T02570185  RH  068%=      5-min Rain = 0
KOES 131515Z 03011KT 26/19 A3004 RMK A01 T02590186  RH  067%=      5-min Rain = 0
KOES 131520Z 03012KT 26/19 A3004 RMK A01 T02600185  RH  067%=      5-min Rain = 0
KOES 131525Z 05009KT 26/19 A3004 RMK A01 T02630186  RH  066%=      5-min Rain = 0
KOES 131530Z 04011KT 26/19 A3005 RMK A01 T02640186  RH  066%=      5-min Rain = 0
KOES 131535Z 03011KT 27/19 A3005 RMK A01 T02660186  RH  065%=      5-min Rain = 0
KOES 131540Z 03011KT 27/19 A3005 RMK A01 T02680186  RH  064%=      5-min Rain = 0
KOES 131545Z 04010G15KT 27/19 A3005 RMK A01 T02680186  RH  064%=      5-min Rain = 0
KOES 131550Z 03011KT 27/19 A3005 RMK A01 T02720186  RH  063%=      5-min Rain = 0
KOES 131555Z 04011KT 27/19 A3005 RMK A01 T02710185  RH  063%=      5-min Rain = 0
KOES 131600Z 04010KT 27/19 A3005 RMK A01 T02740186  RH  062%=      5-min Rain = 0
KOES 131605Z 05010KT 27/19 A3005 RMK A01 T02730185  RH  062%=      5-min Rain = 0
KOES 131610Z 05010KT 28/19 A3006 RMK A01 T02780186  RH  061%=      5-min Rain = 0
KOES 131615Z 03009G14KT 28/19 A3006 RMK A01 T02780188  RH  061%=      5-min Rain = 0
KOES 131620Z 06010G15KT 28/19 A3006 RMK A01 T02820186  RH  059%=      5-min Rain = 0
KOES 131625Z 04010G15KT 28/19 A3006 RMK A01 T02830187  RH  059%=      5-min Rain = 0
KOES 131630Z 04009G14KT 29/19 A3006 RMK A01 T02850186  RH  058%=      5-min Rain = 0
KOES 131635Z 05010KT 29/18 A3006 RMK A01 T02870184  RH  057%=      5-min Rain = 0
KOES 131640Z 05009KT 29/19 A3006 RMK A01 T02890185  RH  056%=      5-min Rain = 0
KOES 131645Z 04009KT 30/19 A3006 RMK A01 T02950186  RH  055%=      5-min Rain = 0
KOES 131650Z 03009KT 29/19 A3006 RMK A01 T02940186  RH  055%=      5-min Rain = 0
KOES 131655Z 03010KT 30/19 A3006 RMK A01 T02980186  RH  054%=      5-min Rain = 0
KOES 131700Z 03010KT 30/19 A3006 RMK A01 T02990185  RH  053%=      5-min Rain = 0
KOES 131705Z 05009KT 30/19 A3006 RMK A01 T02990185  RH  053%=      5-min Rain = 0
KOES 131710Z 04010G16KT 30/18 A3006 RMK A01 T02990184  RH  053%=      5-min Rain = 0
KOES 131715Z 04009KT 30/19 A3006 RMK A01 T03040185  RH  051%=      5-min Rain = 0
KOES 131720Z 03010KT 31/18 A3006 RMK A01 T03060182  RH  050%=      5-min Rain = 0
KOES 131725Z 02010G16KT 31/18 A3006 RMK A01 T03060183  RH  050%=      5-min Rain = 0
KOES 131730Z 03010G15KT 31/18 A3006 RMK A01 T03090184  RH  050%=      5-min Rain = 0
KOES 131735Z 03011KT 31/18 A3006 RMK A01 T03080181  RH  049%=      5-min Rain = 0
KOES 131740Z 03009G14KT 31/18 A3006 RMK A01 T03100179  RH  048%=      5-min Rain = 0
KOES 131745Z 03010KT 31/18 A3006 RMK A01 T03140182  RH  048%=      5-min Rain = 0
KOES 131750Z 03013G20KT 32/18 A3006 RMK A01 T03170180  RH  047%=      5-min Rain = 0
KOES 131755Z 03012KT 31/18 A3006 RMK A01 T03140180  RH  047%=      5-min Rain = 0
KOES 131800Z 03011G20KT 31/18 A3006 RMK A01 T03140180  RH  047%=      5-min Rain = 0
KOES 131805Z 03012G18KT 32/18 A3006 RMK A01 T03180179  RH  046%=      5-min Rain = 0
KOES 131810Z 04012G17KT 32/18 A3006 RMK A01 T03180179  RH  046%=      5-min Rain = 0
KOES 131815Z 03012G18KT 32/18 A3006 RMK A01 T03220182  RH  046%=      5-min Rain = 0
KOES 131820Z 03012G17KT 32/18 A3006 RMK A01 T03200178  RH  045%=      5-min Rain = 0
KOES 131825Z 02013G19KT 33/18 A3006 RMK A01 T03250181  RH  045%=      5-min Rain = 0
KOES 131830Z 03014G21KT 33/18 A3006 RMK A01 T03250180  RH  044%=      5-min Rain = 0
KOES 131835Z 03013G18KT 32/18 A3006 RMK A01 T03240179  RH  044%=      5-min Rain = 0
KOES 131840Z 03011G17KT 33/18 A3006 RMK A01 T03280180  RH  044%=      5-min Rain = 0
KOES 131845Z 04014G20KT 33/18 A3006 RMK A01 T03310179  RH  043%=      5-min Rain = 0
KOES 131850Z 05013G18KT 33/18 A3006 RMK A01 T03260176  RH  043%=      5-min Rain = 0
KOES 131855Z 05015G20KT 33/18 A3006 RMK A01 T03280176  RH  042%=      5-min Rain = 0
KOES 131900Z 04013G18KT 33/18 A3006 RMK A01 T03270175  RH  042%=      5-min Rain = 0
KOES 131905Z 05012G17KT 33/18 A3006 RMK A01 T03330177  RH  042%=      5-min Rain = 0
KOES 131910Z 06012G18KT 33/18 A3005 RMK A01 T03320176  RH  042%=      5-min Rain = 0
KOES 131915Z 06013KT 33/17 A3005 RMK A01 T03340174  RH  041%=      5-min Rain = 0
KOES 131920Z 05013G19KT 33/17 A3005 RMK A01 T03340174  RH  041%=      5-min Rain = 0
KOES 131925Z 06013G18KT 34/17 A3005 RMK A01 T03350174  RH  040%=      5-min Rain = 0
KOES 131930Z 06012G17KT 34/17 A3005 RMK A01 T03360173  RH  040%=      5-min Rain = 0
KOES 131935Z 07014KT 34/17 A3005 RMK A01 T03370171  RH  039%=      5-min Rain = 0
KOES 131940Z 05011G17KT 35/17 A3005 RMK A01 T03450174  RH  038%=      5-min Rain = 0
KOES 131945Z 06013G19KT 34/17 A3004 RMK A01 T03440173  RH  038%=      5-min Rain = 0
KOES 131950Z 05014G20KT 34/17 A3004 RMK A01 T03410172  RH  039%=      5-min Rain = 0
KOES 131955Z 04012G18KT 34/17 A3004 RMK A01 T03410173  RH  039%=      5-min Rain = 0
KOES 132000Z 06011G17KT 35/17 A3004 RMK A01 T03480173  RH  038%=      5-min Rain = 0
KOES 132005Z 05013G19KT 35/17 A3004 RMK A01 T03460172  RH  037%=      5-min Rain = 0
KOES 132010Z 04011G19KT 35/17 A3004 RMK A01 T03500172  RH  037%=      5-min Rain = 0
KOES 132015Z 06014G23KT 35/17 A3004 RMK A01 T03500169  RH  036%=      5-min Rain = 0
KOES 132020Z 07011G19KT 35/17 A3004 RMK A01 T03460171  RH  037%=      5-min Rain = 0
KOES 132025Z 05013KT 35/17 A3003 RMK A01 T03480172  RH  037%=      5-min Rain = 0
KOES 132030Z 05014G19KT 35/17 A3003 RMK A01 T03480169  RH  036%=      5-min Rain = 0
KOES 132035Z 07013G18KT 35/17 A3003 RMK A01 T03490167  RH  036%=      5-min Rain = 0
KOES 132040Z 07012KT 35/17 A3003 RMK A01 T03510166  RH  035%=      5-min Rain = 0
KOES 132045Z 06012G19KT 35/17 A3003 RMK A01 T03530170  RH  036%=      5-min Rain = 0
KOES 132050Z 07014KT 35/17 A3003 RMK A01 T03520169  RH  035%=      5-min Rain = 0
KOES 132055Z 05013G18KT 35/17 A3003 RMK A01 T03510170  RH  036%=      5-min Rain = 0
KOES 132100Z 07012G17KT 35/17 A3002 RMK A01 T03530170  RH  036%=      5-min Rain = 0
KOES 132105Z 07013KT 35/17 A3003 RMK A01 T03520167  RH  035%=      5-min Rain = 0
KOES 132110Z 05011G16KT 35/17 A3002 RMK A01 T03500168  RH  036%=      5-min Rain = 0
KOES 132115Z 04013KT 35/17 A3002 RMK A01 T03530168  RH  035%=      5-min Rain = 0
KOES 132120Z 06010G15KT 35/17 A3002 RMK A01 T03540170  RH  035%=      5-min Rain = 0
KOES 132125Z 05013G18KT 36/17 A3002 RMK A01 T03550170  RH  035%=      5-min Rain = 0
KOES 132130Z 08011KT 35/17 A3001 RMK A01 T03540166  RH  034%=      5-min Rain = 0
KOES 132135Z 08011G18KT 35/16 A3001 RMK A01 T03540164  RH  034%=      5-min Rain = 0
KOES 132140Z 05013G18KT 35/17 A3001 RMK A01 T03530167  RH  035%=      5-min Rain = 0
KOES 132145Z 06011KT 35/17 A3001 RMK A01 T03530167  RH  035%=      5-min Rain = 0
KOES 132150Z 05010G18KT 35/17 A3001 RMK A01 T03530169  RH  035%=      5-min Rain = 0
KOES 132155Z 06010KT 35/17 A3001 RMK A01 T03530169  RH  035%=      5-min Rain = 0
KOES 132200Z 05011KT 35/17 A30 RMK A01 T03530168  RH  035%=      5-min Rain = 0
KOES 132205Z 07010KT 35/17 A30 RMK A01 T03540167  RH  035%=      5-min Rain = 0
KOES 132210Z 07012G19KT 36/17 A30 RMK A01 T03560167  RH  034%=      5-min Rain = 0
KOES 132215Z 06012G19KT 35/17 A30 RMK A01 T03540168  RH  035%=      5-min Rain = 0
KOES 132220Z 07011G16KT 36/17 A30 RMK A01 T03550168  RH  035%=      5-min Rain = 0
KOES 132225Z 06013G20KT 36/17 A30 RMK A01 T03550168  RH  035%=      5-min Rain = 0
KOES 132230Z 06011KT 35/17 A30 RMK A01 T03510167  RH  035%=      5-min Rain = 0
KOES 132235Z 07010KT 35/17 A30 RMK A01 T03530166  RH  035%=      5-min Rain = 0
KOES 132240Z 06011G16KT 35/17 A30 RMK A01 T03530167  RH  035%=      5-min Rain = 0
KOES 132245Z 06011KT 35/17 A2999 RMK A01 T03520165  RH  035%=      5-min Rain = 0
KOES 132250Z 05010KT 35/17 A2999 RMK A01 T03530167  RH  035%=      5-min Rain = 0
KOES 132255Z 05012G18KT 35/17 A2999 RMK A01 T03520165  RH  035%=      5-min Rain = 0
KOES 132300Z 05010G15KT 35/17 A2999 RMK A01 T03530167  RH  035%=      5-min Rain = 0
KOES 132305Z 05010KT 35/17 A2999 RMK A01 T03510167  RH  035%=      5-min Rain = 0
KOES 132310Z 07010KT 35/17 A2999 RMK A01 T03530166  RH  035%=      5-min Rain = 0
KOES 132315Z 06010G16KT 36/17 A2999 RMK A01 T03550168  RH  035%=      5-min Rain = 0
KOES 132320Z 04011KT 35/17 A2999 RMK A01 T03510168  RH  035%=      5-min Rain = 0
KOES 132325Z 07011KT 35/17 A2999 RMK A01 T03520166  RH  035%=      5-min Rain = 0
KOES 132330Z 07009KT 35/16 A2999 RMK A01 T03510162  RH  034%=      5-min Rain = 0
KOES 132335Z 06008KT 35/16 A2999 RMK A01 T03490163  RH  035%=      5-min Rain = 0
KOES 132340Z 06010KT 35/16 A2999 RMK A01 T03460164  RH  035%=      5-min Rain = 0
KOES 132345Z 07009G14KT 34/17 A2999 RMK A01 T03430165  RH  036%=      5-min Rain = 0
KOES 132350Z 07010KT 35/16 A2999 RMK A01 T03460163  RH  035%=      5-min Rain = 0
KOES 132355Z 06009KT 34/17 A2999 RMK A01 T03430165  RH  036%=      5-min Rain = 0
KOES 140000Z 07009KT 34/16 A30 RMK A01 T03420164  RH  036%=      5-min Rain = 0
KOES 140005Z 06010KT 34/17 A30 RMK A01 T03400165  RH  037%=      5-min Rain = 0
KOES 140010Z 06009KT 34/17 A30 RMK A01 T03420165  RH  037%=      5-min Rain = 0
KOES 140015Z 05010KT 34/17 A30 RMK A01 T03420165  RH  037%=      5-min Rain = 0
KOES 140020Z 05011KT 34/17 A30 RMK A01 T03410166  RH  037%=      5-min Rain = 0
KOES 140025Z 05011KT 34/17 A30 RMK A01 T03400168  RH  038%=      5-min Rain = 0
KOES 140030Z 05012KT 34/17 A30 RMK A01 T03390167  RH  038%=      5-min Rain = 0
KOES 140035Z 05012G17KT 34/17 A30 RMK A01 T03380166  RH  038%=      5-min Rain = 0
KOES 140040Z 06011KT 34/17 A30 RMK A01 T03370167  RH  038%=      5-min Rain = 0
KOES 140045Z 06009KT 34/17 A3001 RMK A01 T03360168  RH  039%=      5-min Rain = 0
KOES 140050Z 06008KT 34/17 A3001 RMK A01 T03350169  RH  039%=      5-min Rain = 0
KOES 140055Z 06008KT 33/17 A3001 RMK A01 T03340169  RH  039%=      5-min Rain = 0
KOES 140100Z 06008KT 33/17 A3001 RMK A01 T03320166  RH  039%=      5-min Rain = 0
KOES 140105Z 06009KT 33/17 A3001 RMK A01 T03290167  RH  040%=      5-min Rain = 0
KOES 140110Z 06009KT 33/17 A3001 RMK A01 T03260167  RH  041%=      5-min Rain = 0
KOES 140115Z 06008KT 33/17 A3001 RMK A01 T03250167  RH  041%=      5-min Rain = 0
KOES 140120Z 06008KT 32/17 A3001 RMK A01 T03220167  RH  041%=      5-min Rain = 0
KOES 140125Z 06009KT 32/17 A3001 RMK A01 T03210166  RH  041%=      5-min Rain = 0
KOES 140130Z 05009KT 32/17 A3001 RMK A01 T03200166  RH  042%=      5-min Rain = 0
KOES 140135Z 05009KT 32/17 A3002 RMK A01 T03190167  RH  042%=      5-min Rain = 0
KOES 140140Z 05009KT 32/17 A3002 RMK A01 T03180167  RH  042%=      5-min Rain = 0
KOES 140145Z 06009KT 32/17 A3002 RMK A01 T03160167  RH  043%=      5-min Rain = 0
KOES 140150Z 06008KT 32/17 A3003 RMK A01 T03150167  RH  043%=      5-min Rain = 0
KOES 140155Z 06008KT 31/17 A3003 RMK A01 T03130167  RH  044%=      5-min Rain = 0
KOES 140200Z 06008KT 31/17 A3003 RMK A01 T03100167  RH  045%=      5-min Rain = 0
KOES 140205Z 07009KT 31/17 A3004 RMK A01 T03090167  RH  045%=      5-min Rain = 0
KOES 140210Z 07009KT 31/17 A3004 RMK A01 T03090168  RH  045%=      5-min Rain = 0
KOES 140215Z 07008KT 31/17 A3004 RMK A01 T03080168  RH  045%=      5-min Rain = 0
KOES 140220Z 07007KT 31/17 A3005 RMK A01 T03080168  RH  045%=      5-min Rain = 0
KOES 140225Z 07007KT 31/17 A3005 RMK A01 T03050168  RH  046%=      5-min Rain = 0
KOES 140230Z 07007KT 30/17 A3005 RMK A01 T03020169  RH  047%=      5-min Rain = 0
KOES 140235Z 07008KT 30/17 A3005 RMK A01 T03010170  RH  048%=      5-min Rain = 0
KOES 140240Z 06008KT 30/17 A3005 RMK A01 T03000170  RH  048%=      5-min Rain = 0
KOES 140245Z 06007KT 30/17 A3005 RMK A01 T02980170  RH  048%=      5-min Rain = 0
KOES 140250Z 05007KT 30/17 A3005 RMK A01 T02960170  RH  049%=      5-min Rain = 0
KOES 140255Z 05010KT 30/17 A3006 RMK A01 T02970170  RH  049%=      5-min Rain = 0
KOES 140300Z 05009KT 30/17 A3006 RMK A01 T02990170  RH  048%=      5-min Rain = 0
KOES 140305Z 05010KT 30/17 A3006 RMK A01 T02990171  RH  049%=      5-min Rain = 0
KOES 140310Z 06011KT 30/17 A3007 RMK A01 T02990172  RH  049%=      5-min Rain = 0
KOES 140315Z 06010KT 30/17 A3007 RMK A01 T02980172  RH  049%=      5-min Rain = 0
KOES 140320Z 06009KT 30/17 A3008 RMK A01 T02960172  RH  050%=      5-min Rain = 0
KOES 140325Z 06009KT 29/17 A3008 RMK A01 T02940173  RH  050%=      5-min Rain = 0
KOES 140330Z 06008KT 29/17 A3008 RMK A01 T02920173  RH  051%=      5-min Rain = 0
KOES 140335Z 07009KT 29/17 A3008 RMK A01 T02910173  RH  051%=      5-min Rain = 0
KOES 140340Z 06009KT 29/17 A3008 RMK A01 T02910173  RH  051%=      5-min Rain = 0
KOES 140345Z 07009KT 29/17 A3009 RMK A01 T02900173  RH  052%=      5-min Rain = 0
KOES 140350Z 07008KT 29/17 A3009 RMK A01 T02880174  RH  053%=      5-min Rain = 0
KOES 140355Z 06008KT 29/17 A3009 RMK A01 T02870174  RH  053%=      5-min Rain = 0
KOES 140400Z 07008KT 29/17 A3009 RMK A01 T02860174  RH  054%=      5-min Rain = 0
KOES 140405Z 07008KT 29/18 A3009 RMK A01 T02860175  RH  053%=      5-min Rain = 0
KOES 140410Z 06008KT 29/18 A3009 RMK A01 T02860175  RH  054%=      5-min Rain = 0
KOES 140415Z 07007KT 29/18 A3009 RMK A01 T02850175  RH  054%=      5-min Rain = 0
KOES 140420Z 08007KT 28/18 A301 RMK A01 T02840175  RH  054%=      5-min Rain = 0
KOES 140425Z 08007KT 29/18 A3009 RMK A01 T02850175  RH  054%=      5-min Rain = 0
KOES 140430Z 08009KT 29/18 A3009 RMK A01 T02860176  RH  054%=      5-min Rain = 0
KOES 140435Z 08010KT 29/18 A301 RMK A01 T02860176  RH  054%=      5-min Rain = 0
KOES 140440Z 08011KT 29/18 A301 RMK A01 T02870177  RH  054%=      5-min Rain = 0
KOES 140445Z 07010KT 29/18 A301 RMK A01 T02860176  RH  054%=      5-min Rain = 0
KOES 140450Z 06009KT 29/18 A301 RMK A01 T02850177  RH  055%=      5-min Rain = 0
KOES 140455Z 06008KT 28/18 A301 RMK A01 T02820177  RH  056%=      5-min Rain = 0

Page generated in 0.0154 seconds.